Yatesboro, Pennsylvania
Current Conditions -  °F | °C
As of 9:15 AM on Thursday 30 Oct 2014 (Local Time) from KIDI Reporting Station
Overcast Overcast  
Wind Chill: 40°   Ceiling: 2300
Heat Index: 43°   Visibility: 10mi
Dew Point: 37°   Wind: 5mph
Humidity: 81%   Direction: NA
Pressure: 30.12"   Gusts: NA
Location:  40.8°N, 79.33°W
Report Text: KIDI 301315Z AUTO VRB04KT 10SM SCT017 BKN023 OVC055 06/03 A3012 RMK A01
Loading
Personal Weather Stations






























Interactive Weather Map
Tropical Storm Tracking
New forecast layout! Learn more

10-Day Weather Forecast

Advertisements
Track Severe Weather on mobile